sensor_id;sensor_type;location;lat;lon;timestamp;pressure;altitude;pressure_sealevel;temperature;humidity
63019;BME280;49105;46.046;10.760;2023-04-29T00:00:59;95576.03;;;11.61;57.68
63019;BME280;49105;46.046;10.760;2023-04-29T00:03:25;95579.69;;;11.65;57.89
63019;BME280;49105;46.046;10.760;2023-04-29T00:05:52;95582.97;;;11.52;58.27
63019;BME280;49105;46.046;10.760;2023-04-29T00:08:18;95584.84;;;11.51;58.49
63019;BME280;49105;46.046;10.760;2023-04-29T00:10:44;95576.09;;;11.51;58.50
63019;BME280;49105;46.046;10.760;2023-04-29T00:13:10;95572.97;;;11.49;58.28
63019;BME280;49105;46.046;10.760;2023-04-29T00:15:36;95578.28;;;11.43;58.48
63019;BME280;49105;46.046;10.760;2023-04-29T00:18:03;95586.75;;;11.46;58.42
63019;BME280;49105;46.046;10.760;2023-04-29T00:20:28;95579.97;;;11.34;58.88
63019;BME280;49105;46.046;10.760;2023-04-29T00:22:53;95581.63;;;11.25;58.88
63019;BME280;49105;46.046;10.760;2023-04-29T00:25:18;95576.97;;;11.12;59.20
63019;BME280;49105;46.046;10.760;2023-04-29T00:27:44;95574.03;;;11.13;59.33
63019;BME280;49105;46.046;10.760;2023-04-29T00:30:09;95568.97;;;11.17;59.35
63019;BME280;49105;46.046;10.760;2023-04-29T00:32:35;95581.16;;;11.18;59.39
63019;BME280;49105;46.046;10.760;2023-04-29T00:35:00;95581.16;;;11.18;59.58
63019;BME280;49105;46.046;10.760;2023-04-29T00:37:26;95581.38;;;11.22;59.04
63019;BME280;49105;46.046;10.760;2023-04-29T00:39:51;95565.44;;;11.27;58.87
63019;BME280;49105;46.046;10.760;2023-04-29T00:42:16;95568.88;;;11.32;59.01
63019;BME280;49105;46.046;10.760;2023-04-29T00:44:42;95561.69;;;11.33;58.90
63019;BME280;49105;46.046;10.760;2023-04-29T00:47:07;95559.97;;;11.18;58.97
63019;BME280;49105;46.046;10.760;2023-04-29T00:49:36;95558.66;;;11.15;59.51
63019;BME280;49105;46.046;10.760;2023-04-29T00:52:01;95555.53;;;11.08;59.79
63019;BME280;49105;46.046;10.760;2023-04-29T00:54:27;95553.44;;;11.05;59.91
63019;BME280;49105;46.046;10.760;2023-04-29T00:56:52;95550.25;;;11.08;60.03
63019;BME280;49105;46.046;10.760;2023-04-29T00:59:18;95560.25;;;11.16;59.84
63019;BME280;49105;46.046;10.760;2023-04-29T01:01:45;95556.75;;;11.21;59.70
63019;BME280;49105;46.046;10.760;2023-04-29T01:04:10;95545.63;;;11.24;59.57
63019;BME280;49105;46.046;10.760;2023-04-29T01:09:05;95544.44;;;11.35;59.43
63019;BME280;49105;46.046;10.760;2023-04-29T01:11:42;95550.56;;;11.36;59.39
63019;BME280;49105;46.046;10.760;2023-04-29T01:14:12;95552.06;;;11.13;59.53
63019;BME280;49105;46.046;10.760;2023-04-29T01:16:41;95552.16;;;11.03;60.09
63019;BME280;49105;46.046;10.760;2023-04-29T01:19:15;95548.44;;;11.04;60.17
63019;BME280;49105;46.046;10.760;2023-04-29T01:21:45;95539.88;;;11.12;60.00
63019;BME280;49105;46.046;10.760;2023-04-29T01:24:12;95534.06;;;11.10;59.94
63019;BME280;49105;46.046;10.760;2023-04-29T01:26:38;95522.63;;;11.14;60.22
63019;BME280;49105;46.046;10.760;2023-04-29T01:29:21;95522.03;;;11.23;59.68
63019;BME280;49105;46.046;10.760;2023-04-29T01:31:50;95520.31;;;11.08;59.88
63019;BME280;49105;46.046;10.760;2023-04-29T01:34:27;95518.31;;;10.95;60.40
63019;BME280;49105;46.046;10.760;2023-04-29T01:42:00;95505.81;;;11.00;60.38
63019;BME280;49105;46.046;10.760;2023-04-29T01:44:28;95496.56;;;10.98;60.25
63019;BME280;49105;46.046;10.760;2023-04-29T01:46:55;95503.47;;;10.99;60.34
63019;BME280;49105;46.046;10.760;2023-04-29T01:49:24;95502.66;;;10.98;60.35
63019;BME280;49105;46.046;10.760;2023-04-29T01:51:50;95494.44;;;11.00;60.17
63019;BME280;49105;46.046;10.760;2023-04-29T01:54:15;95477.94;;;11.08;60.23
63019;BME280;49105;46.046;10.760;2023-04-29T01:56:40;95479.56;;;11.04;59.99
63019;BME280;49105;46.046;10.760;2023-04-29T01:59:06;95484.94;;;10.99;60.34
63019;BME280;49105;46.046;10.760;2023-04-29T02:01:32;95476.97;;;10.99;60.42
63019;BME280;49105;46.046;10.760;2023-04-29T02:03:57;95469.44;;;11.11;60.26
63019;BME280;49105;46.046;10.760;2023-04-29T02:06:23;95485.78;;;11.18;60.22
63019;BME280;49105;46.046;10.760;2023-04-29T02:08:48;95491.88;;;11.18;60.15
63019;BME280;49105;46.046;10.760;2023-04-29T02:11:14;95491.09;;;11.18;60.16
63019;BME280;49105;46.046;10.760;2023-04-29T02:13:39;95500.66;;;11.14;59.94
63019;BME280;49105;46.046;10.760;2023-04-29T02:16:08;95507.88;;;11.08;60.51
63019;BME280;49105;46.046;10.760;2023-04-29T02:18:34;95505.50;;;11.07;60.57
63019;BME280;49105;46.046;10.760;2023-04-29T02:20:59;95494.88;;;11.12;60.32
63019;BME280;49105;46.046;10.760;2023-04-29T02:23:26;95485.31;;;11.11;60.90
63019;BME280;49105;46.046;10.760;2023-04-29T02:25:51;95472.28;;;11.20;60.43
63019;BME280;49105;46.046;10.760;2023-04-29T02:28:16;95470.41;;;11.20;60.32
63019;BME280;49105;46.046;10.760;2023-04-29T02:30:42;95465.72;;;11.12;60.47
63019;BME280;49105;46.046;10.760;2023-04-29T02:33:07;95462.84;;;11.08;60.33
63019;BME280;49105;46.046;10.760;2023-04-29T02:35:32;95454.91;;;11.08;60.76
63019;BME280;49105;46.046;10.760;2023-04-29T02:37:57;95461.47;;;11.11;60.59
63019;BME280;49105;46.046;10.760;2023-04-29T02:40:23;95470.25;;;11.11;60.77
63019;BME280;49105;46.046;10.760;2023-04-29T02:42:49;95476.88;;;11.09;60.71
63019;BME280;49105;46.046;10.760;2023-04-29T02:45:15;95483.19;;;11.13;60.68
63019;BME280;49105;46.046;10.760;2023-04-29T02:47:40;95480.00;;;11.16;60.65
63019;BME280;49105;46.046;10.760;2023-04-29T02:50:05;95475.19;;;11.18;60.58
63019;BME280;49105;46.046;10.760;2023-04-29T02:52:31;95470.69;;;11.18;60.81
63019;BME280;49105;46.046;10.760;2023-04-29T02:54:56;95469.84;;;11.23;60.86
63019;BME280;49105;46.046;10.760;2023-04-29T02:57:21;95477.59;;;11.20;60.99
63019;BME280;49105;46.046;10.760;2023-04-29T02:59:47;95480.59;;;11.08;61.17
63019;BME280;49105;46.046;10.760;2023-04-29T03:02:12;95479.56;;;11.04;61.13
63019;BME280;49105;46.046;10.760;2023-04-29T03:04:37;95478.31;;;10.96;61.66
63019;BME280;49105;46.046;10.760;2023-04-29T03:07:04;95478.59;;;10.95;61.20
63019;BME280;49105;46.046;10.760;2023-04-29T03:09:29;95479.16;;;10.91;61.51
63019;BME280;49105;46.046;10.760;2023-04-29T03:11:54;95475.47;;;10.87;61.80
63019;BME280;49105;46.046;10.760;2023-04-29T03:14:20;95467.47;;;10.92;61.60
63019;BME280;49105;46.046;10.760;2023-04-29T03:16:45;95466.66;;;10.97;61.24
63019;BME280;49105;46.046;10.760;2023-04-29T03:19:10;95473.25;;;11.00;60.97
63019;BME280;49105;46.046;10.760;2023-04-29T03:21:36;95477.47;;;11.01;61.14
63019;BME280;49105;46.046;10.760;2023-04-29T03:24:01;95478.03;;;10.98;61.34
63019;BME280;49105;46.046;10.760;2023-04-29T03:26:26;95479.56;;;11.04;60.94
63019;BME280;49105;46.046;10.760;2023-04-29T03:28:52;95477.91;;;11.13;60.92
63019;BME280;49105;46.046;10.760;2023-04-29T03:31:17;95484.09;;;11.03;61.04
63019;BME280;49105;46.046;10.760;2023-04-29T03:33:44;95481.81;;;10.91;61.46
63019;BME280;49105;46.046;10.760;2023-04-29T03:36:10;95488.38;;;10.94;61.54
63019;BME280;49105;46.046;10.760;2023-04-29T03:38:35;95478.56;;;11.00;61.51
63019;BME280;49105;46.046;10.760;2023-04-29T03:41:00;95478.81;;;10.98;61.36
63019;BME280;49105;46.046;10.760;2023-04-29T03:43:26;95480.66;;;11.03;61.54
63019;BME280;49105;46.046;10.760;2023-04-29T03:45:52;95474.53;;;11.02;61.80
63019;BME280;49105;46.046;10.760;2023-04-29T03:48:17;95479.88;;;10.97;62.25
63019;BME280;49105;46.046;10.760;2023-04-29T03:50:44;95477.16;;;10.78;62.96
63019;BME280;49105;46.046;10.760;2023-04-29T03:53:09;95477.75;;;10.70;63.37
63019;BME280;49105;46.046;10.760;2023-04-29T03:55:35;95478.59;;;10.60;63.81
63019;BME280;49105;46.046;10.760;2023-04-29T03:58:01;95475.16;;;10.60;63.86
63019;BME280;49105;46.046;10.760;2023-04-29T04:00:27;95481.47;;;10.64;63.70
63019;BME280;49105;46.046;10.760;2023-04-29T04:02:55;95472.47;;;10.65;63.20
63019;BME280;49105;46.046;10.760;2023-04-29T04:05:20;95480.88;;;10.72;63.34
63019;BME280;49105;46.046;10.760;2023-04-29T04:07:49;95477.16;;;10.78;63.12
63019;BME280;49105;46.046;10.760;2023-04-29T04:10:14;95477.34;;;10.82;62.69
63019;BME280;49105;46.046;10.760;2023-04-29T04:12:39;95477.94;;;10.79;63.42
63019;BME280;49105;46.046;10.760;2023-04-29T04:15:05;95490.94;;;10.75;63.20
63019;BME280;49105;46.046;10.760;2023-04-29T04:17:30;95488.34;;;10.65;63.08
63019;BME280;49105;46.046;10.760;2023-04-29T04:19:55;95496.63;;;10.58;63.41
63019;BME280;49105;46.046;10.760;2023-04-29T04:22:21;95500.34;;;10.52;63.17
63019;BME280;49105;46.046;10.760;2023-04-29T04:24:46;95501.91;;;10.53;63.15
63019;BME280;49105;46.046;10.760;2023-04-29T04:27:11;95493.97;;;10.53;63.08
63019;BME280;49105;46.046;10.760;2023-04-29T04:29:37;95495.28;;;10.56;63.15
63019;BME280;49105;46.046;10.760;2023-04-29T04:32:02;95497.94;;;10.56;63.14
63019;BME280;49105;46.046;10.760;2023-04-29T04:34:28;95502.44;;;10.55;63.06
63019;BME280;49105;46.046;10.760;2023-04-29T04:36:53;95496.31;;;10.60;62.70
63019;BME280;49105;46.046;10.760;2023-04-29T04:39:18;95497.66;;;10.57;63.20
63019;BME280;49105;46.046;10.760;2023-04-29T04:41:44;95498.69;;;10.61;63.17
63019;BME280;49105;46.046;10.760;2023-04-29T04:44:09;95491.56;;;10.57;63.29
63019;BME280;49105;46.046;10.760;2023-04-29T04:46:34;95493.69;;;10.60;63.32
63019;BME280;49105;46.046;10.760;2023-04-29T04:49:00;95492.16;;;10.54;63.54
63019;BME280;49105;46.046;10.760;2023-04-29T04:51:26;95490.53;;;10.53;63.13
63019;BME280;49105;46.046;10.760;2023-04-29T04:53:52;95486.84;;;10.54;62.90
63019;BME280;49105;46.046;10.760;2023-04-29T04:56:18;95488.94;;;10.57;63.06
63019;BME280;49105;46.046;10.760;2023-04-29T04:58:43;95472.22;;;10.66;63.03
63019;BME280;49105;46.046;10.760;2023-04-29T05:01:08;95470.22;;;10.82;62.90
63019;BME280;49105;46.046;10.760;2023-04-29T05:03:34;95474.69;;;10.87;62.93
63019;BME280;49105;46.046;10.760;2023-04-29T05:05:59;95479.09;;;10.97;63.00
63019;BME280;49105;46.046;10.760;2023-04-29T05:08:25;95479.88;;;10.97;62.40
63019;BME280;49105;46.046;10.760;2023-04-29T05:10:50;95485.53;;;10.90;62.98
63019;BME280;49105;46.046;10.760;2023-04-29T05:13:16;95489.31;;;10.79;63.07
63019;BME280;49105;46.046;10.760;2023-04-29T05:15:42;95484.00;;;10.79;62.99
63019;BME280;49105;46.046;10.760;2023-04-29T05:18:07;95486.91;;;10.78;62.95
63019;BME280;49105;46.046;10.760;2023-04-29T05:20:33;95478.97;;;10.83;63.19
63019;BME280;49105;46.046;10.760;2023-04-29T05:22:58;95470.41;;;10.91;63.23
63019;BME280;49105;46.046;10.760;2023-04-29T05:25:23;95474.03;;;11.00;62.69
63019;BME280;49105;46.046;10.760;2023-04-29T05:27:48;95484.81;;;11.09;62.82
63019;BME280;49105;46.046;10.760;2023-04-29T05:30:14;95484.22;;;11.17;62.72
63019;BME280;49105;46.046;10.760;2023-04-29T05:32:40;95485.19;;;11.26;62.30
63019;BME280;49105;46.046;10.760;2023-04-29T05:35:05;95498.09;;;11.33;62.51
63019;BME280;49105;46.046;10.760;2023-04-29T05:37:30;95502.50;;;11.42;62.32
63019;BME280;49105;46.046;10.760;2023-04-29T05:39:56;95503.03;;;11.45;62.37
63019;BME280;49105;46.046;10.760;2023-04-29T05:42:21;95513.66;;;11.39;62.52
63019;BME280;49105;46.046;10.760;2023-04-29T05:44:47;95520.31;;;11.37;62.27
63019;BME280;49105;46.046;10.760;2023-04-29T05:47:12;95514.69;;;11.43;62.41
63019;BME280;49105;46.046;10.760;2023-04-29T05:49:38;95513.50;;;11.55;62.22
63019;BME280;49105;46.046;10.760;2023-04-29T05:52:03;95506.50;;;11.64;62.00
63019;BME280;49105;46.046;10.760;2023-04-29T05:54:30;95512.22;;;11.76;62.00
63019;BME280;49105;46.046;10.760;2023-04-29T05:56:56;95511.63;;;11.84;61.89
63019;BME280;49105;46.046;10.760;2023-04-29T05:59:21;95510.78;;;11.89;61.66
63019;BME280;49105;46.046;10.760;2023-04-29T06:01:46;95501.75;;;11.90;61.86
63019;BME280;49105;46.046;10.760;2023-04-29T06:04:11;95517.91;;;11.94;61.97
63019;BME280;49105;46.046;10.760;2023-04-29T06:06:37;95512.88;;;11.92;61.97
63019;BME280;49105;46.046;10.760;2023-04-29T06:09:02;95520.03;;;11.91;62.29
63019;BME280;49105;46.046;10.760;2023-04-29T06:11:28;95509.75;;;11.85;62.57
63019;BME280;49105;46.046;10.760;2023-04-29T06:13:53;95502.34;;;11.82;62.83
63019;BME280;49105;46.046;10.760;2023-04-29T06:16:19;95510.56;;;11.80;62.79
63019;BME280;49105;46.046;10.760;2023-04-29T06:18:44;95504.78;;;11.78;62.93
63019;BME280;49105;46.046;10.760;2023-04-29T06:21:09;95504.22;;;11.81;62.97
63019;BME280;49105;46.046;10.760;2023-04-29T06:23:35;95505.13;;;11.96;62.80
63019;BME280;49105;46.046;10.760;2023-04-29T06:26:00;95499.66;;;12.11;62.14
63019;BME280;49105;46.046;10.760;2023-04-29T06:28:25;95498.22;;;12.19;62.11
63019;BME280;49105;46.046;10.760;2023-04-29T06:30:51;95493.34;;;12.26;62.02
63019;BME280;49105;46.046;10.760;2023-04-29T06:33:16;95497.00;;;12.30;62.22
63019;BME280;49105;46.046;10.760;2023-04-29T06:35:41;95504.38;;;12.33;61.64
63019;BME280;49105;46.046;10.760;2023-04-29T06:38:06;95504.59;;;12.36;62.11
63019;BME280;49105;46.046;10.760;2023-04-29T06:40:32;95491.84;;;12.38;61.77
63019;BME280;49105;46.046;10.760;2023-04-29T06:42:58;95502.47;;;12.38;61.93
63019;BME280;49105;46.046;10.760;2023-04-29T06:45:23;95492.66;;;12.39;61.62
63019;BME280;49105;46.046;10.760;2023-04-29T06:47:49;95484.94;;;12.37;61.33
63019;BME280;49105;46.046;10.760;2023-04-29T06:50:14;95485.75;;;12.38;61.25
63019;BME280;49105;46.046;10.760;2023-04-29T06:52:40;95481.25;;;12.38;61.67
63019;BME280;49105;46.046;10.760;2023-04-29T06:55:05;95482.81;;;12.39;61.72
63019;BME280;49105;46.046;10.760;2023-04-29T06:57:31;95476.41;;;12.40;61.82
63019;BME280;49105;46.046;10.760;2023-04-29T06:59:56;95478.50;;;12.44;61.43
63019;BME280;49105;46.046;10.760;2023-04-29T07:02:21;95476.25;;;12.51;61.40
63019;BME280;49105;46.046;10.760;2023-04-29T07:04:47;95464.00;;;12.55;61.68
63019;BME280;49105;46.046;10.760;2023-04-29T07:07:13;95467.59;;;12.64;61.06
63019;BME280;49105;46.046;10.760;2023-04-29T07:09:39;95475.47;;;12.69;61.34
63019;BME280;49105;46.046;10.760;2023-04-29T07:12:04;95479.69;;;12.70;61.39
63019;BME280;49105;46.046;10.760;2023-04-29T07:14:29;95482.91;;;12.67;61.25
63019;BME280;49105;46.046;10.760;2023-04-29T07:16:55;95485.56;;;12.67;60.97
63019;BME280;49105;46.046;10.760;2023-04-29T07:19:21;95493.53;;;12.67;61.40
63019;BME280;49105;46.046;10.760;2023-04-29T07:21:46;95479.22;;;12.68;61.26
63019;BME280;49105;46.046;10.760;2023-04-29T07:24:11;95482.13;;;12.66;60.74
63019;BME280;49105;46.046;10.760;2023-04-29T07:26:37;95486.44;;;12.62;60.97
63019;BME280;49105;46.046;10.760;2023-04-29T07:29:02;95483.72;;;12.68;60.94
63019;BME280;49105;46.046;10.760;2023-04-29T07:31:27;95481.78;;;12.73;61.15
63019;BME280;49105;46.046;10.760;2023-04-29T07:33:53;95478.47;;;12.81;60.54
63019;BME280;49105;46.046;10.760;2023-04-29T07:36:19;95483.78;;;12.81;60.66
63019;BME280;49105;46.046;10.760;2023-04-29T07:38:44;95481.22;;;12.76;60.84
63019;BME280;49105;46.046;10.760;2023-04-29T07:41:10;95477.88;;;12.84;61.08
63019;BME280;49105;46.046;10.760;2023-04-29T07:43:35;95479.59;;;12.94;61.18
63019;BME280;49105;46.046;10.760;2023-04-29T07:46:00;95477.56;;;13.05;60.90
63019;BME280;49105;46.046;10.760;2023-04-29T07:48:26;95476.28;;;13.16;60.59
63019;BME280;49105;46.046;10.760;2023-04-29T07:50:51;95478.59;;;13.23;60.14
63019;BME280;49105;46.046;10.760;2023-04-29T07:53:16;95475.06;;;13.27;60.49
63019;BME280;49105;46.046;10.760;2023-04-29T07:55:42;95478.50;;;13.28;60.11
63019;BME280;49105;46.046;10.760;2023-04-29T07:58:07;95469.75;;;13.27;59.98
63019;BME280;49105;46.046;10.760;2023-04-29T08:00:32;95469.75;;;13.27;59.74
63019;BME280;49105;46.046;10.760;2023-04-29T08:02:58;95465.13;;;13.33;59.83
63019;BME280;49105;46.046;10.760;2023-04-29T08:05:23;95480.38;;;13.41;59.96
63019;BME280;49105;46.046;10.760;2023-04-29T08:07:49;95475.88;;;13.42;60.20
63019;BME280;49105;46.046;10.760;2023-04-29T08:10:15;95475.88;;;13.42;59.82
63019;BME280;49105;46.046;10.760;2023-04-29T08:12:40;95478.72;;;13.45;59.52
63019;BME280;49105;46.046;10.760;2023-04-29T08:15:06;95485.31;;;13.48;59.31
63019;BME280;49105;46.046;10.760;2023-04-29T08:17:31;95483.75;;;13.47;58.94
63019;BME280;49105;46.046;10.760;2023-04-29T08:19:57;95482.19;;;13.46;59.12
63019;BME280;49105;46.046;10.760;2023-04-29T08:22:22;95488.56;;;13.45;59.60
63019;BME280;49105;46.046;10.760;2023-04-29T08:24:47;95484.84;;;13.46;59.62
63019;BME280;49105;46.046;10.760;2023-04-29T08:27:13;95486.91;;;13.49;59.64
63019;BME280;49105;46.046;10.760;2023-04-29T08:29:39;95488.28;;;13.60;59.46
63019;BME280;49105;46.046;10.760;2023-04-29T08:32:04;95488.69;;;13.67;59.11
63019;BME280;49105;46.046;10.760;2023-04-29T08:34:30;95503.47;;;13.73;58.92
63019;BME280;49105;46.046;10.760;2023-04-29T08:36:56;95501.69;;;13.82;58.82
63019;BME280;49105;46.046;10.760;2023-04-29T08:39:21;95501.69;;;13.96;59.22
63019;BME280;49105;46.046;10.760;2023-04-29T08:41:46;95513.41;;;14.09;58.59
63019;BME280;49105;46.046;10.760;2023-04-29T08:44:15;95498.19;;;14.23;58.59
63019;BME280;49105;46.046;10.760;2023-04-29T08:46:42;95507.56;;;14.34;58.25
63019;BME280;49105;46.046;10.760;2023-04-29T08:49:07;95503.09;;;14.44;57.78
63019;BME280;49105;46.046;10.760;2023-04-29T08:51:33;95511.38;;;14.56;57.93
63019;BME280;49105;46.046;10.760;2023-04-29T08:53:59;95512.59;;;14.72;57.55
63019;BME280;49105;46.046;10.760;2023-04-29T08:56:24;95502.19;;;14.84;57.26
63019;BME280;49105;46.046;10.760;2023-04-29T08:58:51;95505.75;;;14.94;57.21
63019;BME280;49105;46.046;10.760;2023-04-29T09:01:19;95503.19;;;15.11;57.04
63019;BME280;49105;46.046;10.760;2023-04-29T09:06:25;95487.63;;;15.35;56.34
63019;BME280;49105;46.046;10.760;2023-04-29T09:08:50;95483.59;;;15.47;56.43
63019;BME280;49105;46.046;10.760;2023-04-29T09:11:16;95474.84;;;15.55;56.25
63019;BME280;49105;46.046;10.760;2023-04-29T09:13:41;95470.56;;;15.68;55.89
63019;BME280;49105;46.046;10.760;2023-04-29T09:16:10;95471.16;;;15.65;55.88
63019;BME280;49105;46.046;10.760;2023-04-29T09:18:45;95468.69;;;15.68;55.70
63019;BME280;49105;46.046;10.760;2023-04-29T09:21:12;95461.81;;;15.84;55.46
63019;BME280;49105;46.046;10.760;2023-04-29T09:23:37;95463.25;;;15.99;55.27
63019;BME280;49105;46.046;10.760;2023-04-29T09:26:02;95465.50;;;16.15;55.01
63019;BME280;49105;46.046;10.760;2023-04-29T09:28:27;95454.66;;;16.28;54.70
63019;BME280;49105;46.046;10.760;2023-04-29T09:30:53;95447.75;;;16.36;54.15
63019;BME280;49105;46.046;10.760;2023-04-29T09:33:18;95446.81;;;16.41;54.24
63019;BME280;49105;46.046;10.760;2023-04-29T09:35:44;95448.09;;;16.52;54.00
63019;BME280;49105;46.046;10.760;2023-04-29T09:40:36;95433.44;;;16.58;53.64
63019;BME280;49105;46.046;10.760;2023-04-29T09:43:01;95428.75;;;16.63;53.49
63019;BME280;49105;46.046;10.760;2023-04-29T09:45:33;95432.53;;;16.71;52.94
63019;BME280;49105;46.046;10.760;2023-04-29T09:48:03;95411.16;;;16.62;53.06
63019;BME280;49105;46.046;10.760;2023-04-29T09:50:29;95408.16;;;16.64;52.50
63019;BME280;49105;46.046;10.760;2023-04-29T09:52:54;95407.69;;;16.62;52.45
63019;BME280;49105;46.046;10.760;2023-04-29T09:55:19;95405.94;;;16.66;52.62
63019;BME280;49105;46.046;10.760;2023-04-29T09:57:45;95404.69;;;16.72;52.27
63019;BME280;49105;46.046;10.760;2023-04-29T10:00:11;95401.09;;;16.68;52.32
63019;BME280;49105;46.046;10.760;2023-04-29T10:02:37;95396.19;;;16.70;52.12
63019;BME280;49105;46.046;10.760;2023-04-29T10:05:05;95391.97;;;16.69;51.83
63019;BME280;49105;46.046;10.760;2023-04-29T10:07:31;95385.03;;;16.68;51.98
63019;BME280;49105;46.046;10.760;2023-04-29T10:09:57;95378.16;;;16.76;52.00
63019;BME280;49105;46.046;10.760;2023-04-29T10:12:22;95375.78;;;16.83;51.85
63019;BME280;49105;46.046;10.760;2023-04-29T10:18:02;95365.19;;;17.04;51.50
63019;BME280;49105;46.046;10.760;2023-04-29T10:20:21;95356.66;;;17.10;51.21
63019;BME280;49105;46.046;10.760;2023-04-29T10:22:47;95341.53;;;17.15;50.89
63019;BME280;49105;46.046;10.760;2023-04-29T10:25:16;95343.25;;;17.19;50.36
63019;BME280;49105;46.046;10.760;2023-04-29T10:27:42;95343.88;;;17.25;50.20
63019;BME280;49105;46.046;10.760;2023-04-29T10:30:10;95335.16;;;17.36;50.31
63019;BME280;49105;46.046;10.760;2023-04-29T10:32:36;95332.09;;;17.47;49.97
63019;BME280;49105;46.046;10.760;2023-04-29T10:35:05;95323.25;;;17.55;50.17
63019;BME280;49105;46.046;10.760;2023-04-29T10:37:31;95324.94;;;17.59;50.00
63019;BME280;49105;46.046;10.760;2023-04-29T10:42:33;95310.38;;;17.78;49.68
63019;BME280;49105;46.046;10.760;2023-04-29T10:53:13;95286.38;;;18.56;48.89
63019;BME280;49105;46.046;10.760;2023-04-29T10:55:39;95284.13;;;18.58;48.69
63019;BME280;49105;46.046;10.760;2023-04-29T10:58:05;95283.13;;;18.63;48.41
63019;BME280;49105;46.046;10.760;2023-04-29T11:00:31;95275.81;;;18.72;48.47
63019;BME280;49105;46.046;10.760;2023-04-29T11:02:58;95271.81;;;18.78;47.91
63019;BME280;49105;46.046;10.760;2023-04-29T11:05:30;95263.75;;;18.78;47.31
63019;BME280;49105;46.046;10.760;2023-04-29T11:10:40;95253.94;;;18.95;46.82
63019;BME280;49105;46.046;10.760;2023-04-29T11:15:51;95242.53;;;18.98;46.11
63019;BME280;49105;46.046;10.760;2023-04-29T11:18:16;95241.53;;;19.02;46.48
63019;BME280;49105;46.046;10.760;2023-04-29T11:23:26;95233.94;;;19.04;45.32
63019;BME280;49105;46.046;10.760;2023-04-29T11:25:51;95230.56;;;19.07;45.70
63019;BME280;49105;46.046;10.760;2023-04-29T11:28:17;95222.88;;;19.06;44.76
63019;BME280;49105;46.046;10.760;2023-04-29T11:30:42;95225.88;;;19.04;44.43
63019;BME280;49105;46.046;10.760;2023-04-29T11:33:09;95218.63;;;19.05;44.58
63019;BME280;49105;46.046;10.760;2023-04-29T11:35:34;95218.41;;;19.10;44.29
63019;BME280;49105;46.046;10.760;2023-04-29T11:38:03;95213.69;;;19.19;44.29
63019;BME280;49105;46.046;10.760;2023-04-29T11:40:29;95216.72;;;19.30;44.43
63019;BME280;49105;46.046;10.760;2023-04-29T11:42:56;95214.22;;;19.37;43.98
63019;BME280;49105;46.046;10.760;2023-04-29T11:45:21;95204.06;;;19.43;43.96
63019;BME280;49105;46.046;10.760;2023-04-29T11:47:47;95194.31;;;19.50;43.57
63019;BME280;49105;46.046;10.760;2023-04-29T11:50:13;95200.56;;;19.54;43.03
63019;BME280;49105;46.046;10.760;2023-04-29T11:52:40;95195.63;;;19.56;43.23
63019;BME280;49105;46.046;10.760;2023-04-29T11:55:09;95197.31;;;19.61;43.05
63019;BME280;49105;46.046;10.760;2023-04-29T11:57:36;95192.81;;;19.65;43.29
63019;BME280;49105;46.046;10.760;2023-04-29T12:00:01;95180.28;;;19.69;43.27
63019;BME280;49105;46.046;10.760;2023-04-29T12:02:30;95188.44;;;19.73;42.93
63019;BME280;49105;46.046;10.760;2023-04-29T12:04:56;95185.06;;;19.76;42.90
63019;BME280;49105;46.046;10.760;2023-04-29T12:07:22;95185.34;;;19.87;43.29
63019;BME280;49105;46.046;10.760;2023-04-29T12:09:47;95182.44;;;19.92;43.20
63019;BME280;49105;46.046;10.760;2023-04-29T12:12:13;95178.72;;;19.96;43.44
63019;BME280;49105;46.046;10.760;2023-04-29T12:14:39;95186.53;;;20.01;43.81
63019;BME280;49105;46.046;10.760;2023-04-29T12:17:04;95184.72;;;20.05;43.68
63019;BME280;49105;46.046;10.760;2023-04-29T12:19:30;95174.84;;;20.10;43.77
63019;BME280;49105;46.046;10.760;2023-04-29T12:21:59;95176.84;;;20.13;43.75
63019;BME280;49105;46.046;10.760;2023-04-29T12:24:26;95172.75;;;20.19;43.70
63019;BME280;49105;46.046;10.760;2023-04-29T12:26:53;95169.66;;;20.32;43.55
63019;BME280;49105;46.046;10.760;2023-04-29T12:29:21;95180.53;;;20.52;43.90
63019;BME280;49105;46.046;10.760;2023-04-29T12:31:47;95169.28;;;20.62;43.75
63019;BME280;49105;46.046;10.760;2023-04-29T12:34:13;95168.91;;;20.64;43.84
63019;BME280;49105;46.046;10.760;2023-04-29T12:36:40;95170.38;;;20.61;43.84
63019;BME280;49105;46.046;10.760;2023-04-29T12:39:06;95172.66;;;20.59;43.98
63019;BME280;49105;46.046;10.760;2023-04-29T12:41:37;95156.50;;;20.59;43.79
63019;BME280;49105;46.046;10.760;2023-04-29T12:44:04;95161.19;;;20.62;43.84
63019;BME280;49105;46.046;10.760;2023-04-29T12:46:33;95159.47;;;20.70;43.92
63019;BME280;49105;46.046;10.760;2023-04-29T12:49:00;95155.38;;;20.60;43.22
63019;BME280;49105;46.046;10.760;2023-04-29T12:51:25;95157.28;;;20.60;43.52
63019;BME280;49105;46.046;10.760;2023-04-29T12:53:51;95155.47;;;20.64;43.61
63019;BME280;49105;46.046;10.760;2023-04-29T12:56:16;95148.97;;;20.65;43.68
63019;BME280;49105;46.046;10.760;2023-04-29T12:58:42;95145.50;;;20.64;43.67
63019;BME280;49105;46.046;10.760;2023-04-29T13:01:07;95161.81;;;20.55;43.52
63019;BME280;49105;46.046;10.760;2023-04-29T13:03:32;95161.91;;;20.59;43.82
63019;BME280;49105;46.046;10.760;2023-04-29T13:05:58;95151.91;;;20.60;43.71
63019;BME280;49105;46.046;10.760;2023-04-29T13:08:23;95161.28;;;20.66;43.47
63019;BME280;49105;46.046;10.760;2023-04-29T13:10:48;95162.94;;;20.70;43.14
63019;BME280;49105;46.046;10.760;2023-04-29T13:13:14;95159.00;;;20.84;43.09
63019;BME280;49105;46.046;10.760;2023-04-29T13:15:39;95162.66;;;20.91;42.77
63019;BME280;49105;46.046;10.760;2023-04-29T13:18:04;95163.50;;;20.95;42.86